sensor_id;sensor_type;location;lat;lon;timestamp;temperature;humidity
3980;DHT22;2004;52.452;13.120;2023-02-15T00:03:08;1.60;99.90
3980;DHT22;2004;52.452;13.120;2023-02-15T00:11:11;1.50;99.90
3980;DHT22;2004;52.452;13.120;2023-02-15T00:26:49;1.30;99.90
3980;DHT22;2004;52.452;13.120;2023-02-15T00:34:39;1.30;99.90
3980;DHT22;2004;52.452;13.120;2023-02-15T00:42:30;1.20;99.90
3980;DHT22;2004;52.452;13.120;2023-02-15T00:50:20;1.20;99.90
3980;DHT22;2004;52.452;13.120;2023-02-15T00:58:12;1.10;99.90
3980;DHT22;2004;52.452;13.120;2023-02-15T01:06:03;1.00;99.90
3980;DHT22;2004;52.452;13.120;2023-02-15T01:13:56;1.00;99.90
3980;DHT22;2004;52.452;13.120;2023-02-15T01:21:47;1.00;99.90
3980;DHT22;2004;52.452;13.120;2023-02-15T01:29:37;0.90;99.90
3980;DHT22;2004;52.452;13.120;2023-02-15T01:37:30;0.80;99.90
3980;DHT22;2004;52.452;13.120;2023-02-15T01:45:30;0.80;99.90
3980;DHT22;2004;52.452;13.120;2023-02-15T01:53:27;0.70;99.90
3980;DHT22;2004;52.452;13.120;2023-02-15T02:01:19;0.70;99.90
3980;DHT22;2004;52.452;13.120;2023-02-15T02:09:10;0.60;99.90
3980;DHT22;2004;52.452;13.120;2023-02-15T02:17:45;0.60;99.90
3980;DHT22;2004;52.452;13.120;2023-02-15T02:25:36;0.60;99.90
3980;DHT22;2004;52.452;13.120;2023-02-15T02:49:39;0.50;99.90
3980;DHT22;2004;52.452;13.120;2023-02-15T02:57:31;0.50;99.90
3980;DHT22;2004;52.452;13.120;2023-02-15T03:05:26;0.40;99.90
3980;DHT22;2004;52.452;13.120;2023-02-15T03:13:17;0.40;99.90
3980;DHT22;2004;52.452;13.120;2023-02-15T03:21:10;0.40;99.90
3980;DHT22;2004;52.452;13.120;2023-02-15T03:29:13;0.30;99.90
3980;DHT22;2004;52.452;13.120;2023-02-15T03:37:22;0.30;99.90
3980;DHT22;2004;52.452;13.120;2023-02-15T03:45:22;0.30;99.90
3980;DHT22;2004;52.452;13.120;2023-02-15T03:53:17;0.20;99.90
3980;DHT22;2004;52.452;13.120;2023-02-15T04:01:25;0.20;99.90
3980;DHT22;2004;52.452;13.120;2023-02-15T04:09:47;0.20;99.90
3980;DHT22;2004;52.452;13.120;2023-02-15T04:17:56;0.20;99.90
3980;DHT22;2004;52.452;13.120;2023-02-15T04:25:47;0.20;99.90
3980;DHT22;2004;52.452;13.120;2023-02-15T04:33:37;0.20;99.90
3980;DHT22;2004;52.452;13.120;2023-02-15T04:41:28;0.20;99.90
3980;DHT22;2004;52.452;13.120;2023-02-15T04:49:18;0.30;99.90
3980;DHT22;2004;52.452;13.120;2023-02-15T04:57:09;0.40;99.90
3980;DHT22;2004;52.452;13.120;2023-02-15T05:05:00;0.50;99.90
3980;DHT22;2004;52.452;13.120;2023-02-15T05:12:50;0.60;99.90
3980;DHT22;2004;52.452;13.120;2023-02-15T05:20:40;0.60;99.90
3980;DHT22;2004;52.452;13.120;2023-02-15T05:28:31;0.60;99.90
3980;DHT22;2004;52.452;13.120;2023-02-15T05:36:22;0.70;99.90
3980;DHT22;2004;52.452;13.120;2023-02-15T05:44:12;0.80;99.90
3980;DHT22;2004;52.452;13.120;2023-02-15T05:52:03;0.80;99.90
3980;DHT22;2004;52.452;13.120;2023-02-15T05:59:54;0.90;99.90
3980;DHT22;2004;52.452;13.120;2023-02-15T06:07:44;0.90;99.90
3980;DHT22;2004;52.452;13.120;2023-02-15T06:15:35;0.90;99.90
3980;DHT22;2004;52.452;13.120;2023-02-15T06:23:25;0.90;99.90
3980;DHT22;2004;52.452;13.120;2023-02-15T06:31:16;0.90;99.90
3980;DHT22;2004;52.452;13.120;2023-02-15T06:39:08;0.90;99.90
3980;DHT22;2004;52.452;13.120;2023-02-15T06:46:58;0.90;99.90
3980;DHT22;2004;52.452;13.120;2023-02-15T06:54:49;0.90;99.90
3980;DHT22;2004;52.452;13.120;2023-02-15T07:02:39;0.90;99.90
3980;DHT22;2004;52.452;13.120;2023-02-15T07:10:30;0.90;99.90
3980;DHT22;2004;52.452;13.120;2023-02-15T07:18:20;0.90;99.90
3980;DHT22;2004;52.452;13.120;2023-02-15T07:26:11;1.00;99.90
3980;DHT22;2004;52.452;13.120;2023-02-15T07:34:02;1.00;99.90
3980;DHT22;2004;52.452;13.120;2023-02-15T07:41:53;1.00;99.90
3980;DHT22;2004;52.452;13.120;2023-02-15T07:49:45;1.00;99.90
3980;DHT22;2004;52.452;13.120;2023-02-15T07:57:35;1.10;99.90
3980;DHT22;2004;52.452;13.120;2023-02-15T08:05:28;1.10;99.90
3980;DHT22;2004;52.452;13.120;2023-02-15T08:13:19;1.10;99.90
3980;DHT22;2004;52.452;13.120;2023-02-15T08:21:10;1.20;99.90
3980;DHT22;2004;52.452;13.120;2023-02-15T08:29:01;1.30;99.90
3980;DHT22;2004;52.452;13.120;2023-02-15T08:36:51;1.40;99.90
3980;DHT22;2004;52.452;13.120;2023-02-15T08:44:42;1.40;99.90
3980;DHT22;2004;52.452;13.120;2023-02-15T08:52:32;1.50;99.90
3980;DHT22;2004;52.452;13.120;2023-02-15T09:00:23;1.60;99.90
3980;DHT22;2004;52.452;13.120;2023-02-15T09:08:13;1.70;99.90
3980;DHT22;2004;52.452;13.120;2023-02-15T09:16:07;1.90;99.90
3980;DHT22;2004;52.452;13.120;2023-02-15T09:23:59;1.90;99.90
3980;DHT22;2004;52.452;13.120;2023-02-15T09:31:50;2.00;99.90
3980;DHT22;2004;52.452;13.120;2023-02-15T09:39:42;2.10;99.90
3980;DHT22;2004;52.452;13.120;2023-02-15T09:48:04;2.20;99.90
3980;DHT22;2004;52.452;13.120;2023-02-15T09:56:10;2.30;99.90
3980;DHT22;2004;52.452;13.120;2023-02-15T10:04:20;2.50;99.90
3980;DHT22;2004;52.452;13.120;2023-02-15T10:20:43;2.70;99.90
3980;DHT22;2004;52.452;13.120;2023-02-15T10:28:52;2.80;99.90
3980;DHT22;2004;52.452;13.120;2023-02-15T10:37:06;2.80;99.90
3980;DHT22;2004;52.452;13.120;2023-02-15T10:53:58;3.10;99.90
3980;DHT22;2004;52.452;13.120;2023-02-15T11:01:53;3.20;99.90
3980;DHT22;2004;52.452;13.120;2023-02-15T11:09:51;3.30;99.90
3980;DHT22;2004;52.452;13.120;2023-02-15T11:17:57;3.40;99.90
3980;DHT22;2004;52.452;13.120;2023-02-15T11:25:58;3.70;99.90
3980;DHT22;2004;52.452;13.120;2023-02-15T11:34:06;4.00;99.90
3980;DHT22;2004;52.452;13.120;2023-02-15T11:42:13;4.30;99.90
3980;DHT22;2004;52.452;13.120;2023-02-15T11:50:04;4.40;99.90
3980;DHT22;2004;52.452;13.120;2023-02-15T11:58:09;4.50;99.90
3980;DHT22;2004;52.452;13.120;2023-02-15T12:06:05;4.50;99.90
3980;DHT22;2004;52.452;13.120;2023-02-15T12:14:15;4.70;99.90
3980;DHT22;2004;52.452;13.120;2023-02-15T12:22:08;4.90;99.90
3980;DHT22;2004;52.452;13.120;2023-02-15T12:30:47;5.10;99.90
3980;DHT22;2004;52.452;13.120;2023-02-15T12:38:37;5.30;99.90
3980;DHT22;2004;52.452;13.120;2023-02-15T12:46:28;5.50;99.90
3980;DHT22;2004;52.452;13.120;2023-02-15T12:54:29;5.70;99.90
3980;DHT22;2004;52.452;13.120;2023-02-15T13:02:23;6.00;99.90
3980;DHT22;2004;52.452;13.120;2023-02-15T13:10:52;6.20;99.90
3980;DHT22;2004;52.452;13.120;2023-02-15T13:18:45;6.40;99.90
3980;DHT22;2004;52.452;13.120;2023-02-15T13:26:37;6.50;99.90
3980;DHT22;2004;52.452;13.120;2023-02-15T13:34:34;6.70;99.90
3980;DHT22;2004;52.452;13.120;2023-02-15T13:42:40;6.80;99.90
3980;DHT22;2004;52.452;13.120;2023-02-15T13:50:56;7.00;99.90
3980;DHT22;2004;52.452;13.120;2023-02-15T14:07:16;7.30;99.90
3980;DHT22;2004;52.452;13.120;2023-02-15T14:15:26;7.50;99.90
3980;DHT22;2004;52.452;13.120;2023-02-15T14:31:30;7.80;99.90
3980;DHT22;2004;52.452;13.120;2023-02-15T14:48:50;7.80;99.90
3980;DHT22;2004;52.452;13.120;2023-02-15T14:56:42;7.90;99.90
3980;DHT22;2004;52.452;13.120;2023-02-15T15:12:48;7.80;99.90
3980;DHT22;2004;52.452;13.120;2023-02-15T15:20:50;7.90;99.90
3980;DHT22;2004;52.452;13.120;2023-02-15T15:52:38;7.80;99.90
3980;DHT22;2004;52.452;13.120;2023-02-15T16:00:37;7.70;99.90
3980;DHT22;2004;52.452;13.120;2023-02-15T16:08:36;7.60;99.90
3980;DHT22;2004;52.452;13.120;2023-02-15T16:16:28;7.50;99.90
3980;DHT22;2004;52.452;13.120;2023-02-15T16:32:35;7.10;99.90
3980;DHT22;2004;52.452;13.120;2023-02-15T16:40:38;7.00;99.90
3980;DHT22;2004;52.452;13.120;2023-02-15T16:48:29;6.80;99.90
3980;DHT22;2004;52.452;13.120;2023-02-15T16:56:28;6.60;99.90
3980;DHT22;2004;52.452;13.120;2023-02-15T17:12:11;6.20;99.90
3980;DHT22;2004;52.452;13.120;2023-02-15T17:20:01;5.90;99.90
3980;DHT22;2004;52.452;13.120;2023-02-15T17:27:54;5.80;99.90
3980;DHT22;2004;52.452;13.120;2023-02-15T17:36:23;5.60;99.90
3980;DHT22;2004;52.452;13.120;2023-02-15T17:44:12;5.40;99.90
3980;DHT22;2004;52.452;13.120;2023-02-15T17:52:05;5.20;99.90
3980;DHT22;2004;52.452;13.120;2023-02-15T17:59:57;5.00;99.90
3980;DHT22;2004;52.452;13.120;2023-02-15T18:08:14;4.90;99.90
3980;DHT22;2004;52.452;13.120;2023-02-15T18:16:25;4.70;99.90
3980;DHT22;2004;52.452;13.120;2023-02-15T18:24:22;4.50;99.90
3980;DHT22;2004;52.452;13.120;2023-02-15T18:32:21;4.40;99.90
3980;DHT22;2004;52.452;13.120;2023-02-15T18:40:18;4.20;99.90
3980;DHT22;2004;52.452;13.120;2023-02-15T18:48:09;4.10;99.90
3980;DHT22;2004;52.452;13.120;2023-02-15T18:55:59;4.00;99.90
3980;DHT22;2004;52.452;13.120;2023-02-15T19:03:50;3.90;99.90
3980;DHT22;2004;52.452;13.120;2023-02-15T19:11:43;3.70;99.90
3980;DHT22;2004;52.452;13.120;2023-02-15T19:19:35;3.60;99.90
3980;DHT22;2004;52.452;13.120;2023-02-15T19:27:35;3.50;99.90
3980;DHT22;2004;52.452;13.120;2023-02-15T19:35:33;3.30;99.90
3980;DHT22;2004;52.452;13.120;2023-02-15T19:43:24;3.20;99.90
3980;DHT22;2004;52.452;13.120;2023-02-15T19:51:18;3.10;99.90
3980;DHT22;2004;52.452;13.120;2023-02-15T19:59:23;3.00;99.90
3980;DHT22;2004;52.452;13.120;2023-02-15T20:07:33;2.80;99.90
3980;DHT22;2004;52.452;13.120;2023-02-15T20:31:16;2.50;99.90
3980;DHT22;2004;52.452;13.120;2023-02-15T20:39:15;2.50;99.90
3980;DHT22;2004;52.452;13.120;2023-02-15T20:47:06;2.40;99.90
3980;DHT22;2004;52.452;13.120;2023-02-15T20:54:57;2.30;99.90
3980;DHT22;2004;52.452;13.120;2023-02-15T21:02:49;2.20;99.90
3980;DHT22;2004;52.452;13.120;2023-02-15T21:10:41;2.10;99.90
3980;DHT22;2004;52.452;13.120;2023-02-15T21:18:34;2.00;99.90
3980;DHT22;2004;52.452;13.120;2023-02-15T21:26:28;1.90;99.90
3980;DHT22;2004;52.452;13.120;2023-02-15T21:34:19;1.90;99.90
3980;DHT22;2004;52.452;13.120;2023-02-15T21:42:10;1.80;99.90
3980;DHT22;2004;52.452;13.120;2023-02-15T21:50:21;1.70;99.90
3980;DHT22;2004;52.452;13.120;2023-02-15T21:58:34;1.60;99.90
3980;DHT22;2004;52.452;13.120;2023-02-15T22:06:25;1.40;99.90
3980;DHT22;2004;52.452;13.120;2023-02-15T22:22:19;1.30;99.90
3980;DHT22;2004;52.452;13.120;2023-02-15T22:38:14;1.10;99.90
3980;DHT22;2004;52.452;13.120;2023-02-15T22:46:09;1.00;99.90
3980;DHT22;2004;52.452;13.120;2023-02-15T22:54:02;1.00;99.90
3980;DHT22;2004;52.452;13.120;2023-02-15T23:01:56;0.90;99.90
3980;DHT22;2004;52.452;13.120;2023-02-15T23:09:47;0.90;99.90
3980;DHT22;2004;52.452;13.120;2023-02-15T23:17:38;0.90;99.90
3980;DHT22;2004;52.452;13.120;2023-02-15T23:25:28;0.80;99.90
3980;DHT22;2004;52.452;13.120;2023-02-15T23:33:22;0.80;99.90
3980;DHT22;2004;52.452;13.120;2023-02-15T23:41:14;0.70;99.90
3980;DHT22;2004;52.452;13.120;2023-02-15T23:49:16;0.60;99.90
3980;DHT22;2004;52.452;13.120;2023-02-15T23:57:10;0.60;99.90
